Pagrindinis puslapis
METAR-TAF:

METAR-TAF

Oro uostai :

Eskišechiras, Turkija

platuma: 39-48-36N, ilguma: 30-31-10E, Aukštis: 789 m

Dabartinis oras

Ataskaita buvo paskelbta 52 minutes, ne 17:50 UTC
Vėjas 9 kt iš Šiaurės Vakarų
Temperatūra 1°C
Drėgmė 69%
Slėgis 1025 hPa
Matomumas 10 km arba daugiau
Su prošvaistėmis ne aukštis 3500 ft

METAR: LTBY 281750Z 31009KT 9999 BKN035 01/M04 Q1025

Laikas: 21:42 (18:42 UTC)

Prognozė

Ataskaita buvo paskelbta 2 valandos ir 2 minutes, ne 16:40 UTC
Prognozė galioja nuo 28 metu 18 UTC su 01 metu 03 UTC
Vėjas 8 kt iš Vakarų/Šiaurės Vakarų
Matomumas 10 km arba daugiau
Su prošvaistėmis ne aukštis 3500 ft

TAF: LTBY 281640Z 2818/0103 30008KT 9999 BKN035

Orai ataskaitas ir orų prognozės (METAR, TAF).

turimą stotys yra geltonos ir raudonos taškus žemėlapyje.

Perkelti pele per norėdami pamatyti stoties vardą.

Tada spustelėkite, norėdami matyti oro stebėjimo ir prognozės.

Norėdami pakeisti žemėlapį: spustelėkite ant žalios mygtukų su juodo kryžiaus žemyn,; žalią mygtuką su brūkšneliu, jei norite nutolinti; arba žalių rodyklių gretimoms žemėlapius.


METAR-TAF: